首页
METAR-TAF:

METAR-TAF

机场 :

穆尔塔拉·穆罕默德国际机场

拉哥斯, 尼日利亚

纬度: 06-35N, 经度: 003-20E, 海拔: 40米

当前天气观测

该预报发布于29分钟前的15:00 UTC
风速7节,风向
温度 29°C
湿度 70%
气压 1015 hPa
能见度10公里或以上
散云层高于1300英尺

METAR: DNMM 161500Z 18007KT 9999 SCT013 29/23 Q1015 NOSIG

时间: 16:29 (15:29 UTC)

预报

该预报发布于5小时和39分钟前的09:50 UTC
预报有效从16日的 12点(UTC)到 17日的 18点(UTC)
风速10节,风向南转西南
能见度10公里或以上
多云层高于1300英尺
短暂存在
从 16日的 12点(UTC)到 16日的 17点(UTC)
多云层高于1300英尺
少量云层高于2000英尺, 积雨云.
几率 30%
从 16日的 15点(UTC)到 16日的 19点(UTC)
能見度: 5000
多云层高于1000英尺
少量云层高于1900英尺, 积雨云.
雷暴, 小雨
成为
从 16日的 19点(UTC)到 16日的 21点(UTC)
风速2节,风向多变
少量云层高于900英尺

TAF: DNMM 160950Z 1612/1718 20010KT 9999 BKN013 TEMPO 1612/1617 BKN013 FEW020CB PROB30 1615/1619 5000 -TSRA BKN010 FEW019CB BECMG 1619/1621 VRB02KT FEW009

超过4000个机场的气象观测和天气预报(METAR&TAF报告)。

可查询的气象台以黄色和红色小点在地图上表示。

将鼠标移到小点上方,可查看气象台名称。

然后点击查看天气观测和预报。

如需切换地图:点击带黑十字的绿色按钮放大地图;点击带横线的绿色按钮缩小地图;或者点击绿色箭头查看邻近地区的地图。


METAR-TAF: